首页
METAR-TAF:

METAR-TAF

机场 :

下卡姆斯克, 俄罗斯

纬度: 55-33-48N, 经度: 052-05-42E, 海拔: 196米

当前天气观测

该预报发布于22分钟前的04:30 UTC
风速10节,风向
温度 -15°C
湿度 85%
气压 1024 hPa
能见度10公里或以上
1500米以下无云,无积雨云

METAR: UWKE 290430Z 18005MPS CAVOK M15/M17 Q1024 R21/410570 NOSIG RMK QFE750/1001

时间: 07:52 (04:52 UTC)

预报

该预报发布于3小时和7分钟前的01:45 UTC
预报有效从29日的 03点(UTC)到 30日的 03点(UTC)
风速6节,风向,有时为17节阵风
能见度10公里或以上
多云层高于1600英尺
短暂存在
从 29日的 03点(UTC)到 29日的 05点(UTC)
风速6节,风向东南,有时为17节阵风
能見度: 0300
多云层高于200英尺
冻雾
从 29日的 0500点(UTC)
风速12节,风向南转南东,有时为23节阵风
能見度: 5000
阴天层高于1100英尺
小雪, 低吹雪
短暂存在
从 29日的 05点(UTC)到 29日的 21点(UTC)
风速6节,风向东南,有时为17节阵风
能見度: 2100
阴天层高于500英尺
小雪

TAF: UWKE 290145Z 2903/3003 17003G09MPS 9999 BKN016 TEMPO 2903/2905 14003G09MPS 0300 FZFG BKN002 FM290500 16006G12MPS 5000 -SN DRSN OVC011 TEMPO 2905/2921 14003G09MPS 2100 -SN OVC005

超过4000个机场的气象观测和天气预报(METAR&TAF报告)。

可查询的气象台以黄色和红色小点在地图上表示。

将鼠标移到小点上方,可查看气象台名称。

然后点击查看天气观测和预报。

如需切换地图:点击带黑十字的绿色按钮放大地图;点击带横线的绿色按钮缩小地图;或者点击绿色箭头查看邻近地区的地图。


METAR-TAF: